MWHGRANT COUNTY INTL
METARs for airports near MWH, sorted by distance:
N 0 nm 1188' KMWH 222252Z 04003KT 10SM OVC006 01/M02 A3056
NW 10 nm 1276' KEPH 222253Z 01010KT 10SM BKN006 M01/M03 A3055
W 37 nm 1248' KEAT 222255Z 09005KT 10SM CLR M02/M03 A3055
W 50 nm 1763' KELN 222253Z 00000KT 10SM CLR 00/M05 A3051
S 54 nm 394' KRLD 222335Z 34005KT 10SM CLR 03/00 A3059
S 57 nm 410' KPSC 222253Z 35007KT 10SM CLR 05/00 A3058
SW 63 nm 1098' KYKM 222253Z 00000KT 10SM CLR 04/M03 A3053
E 71 nm 2462' KSKA 222308Z 03006KT 5SM BR OVC009 01/00 A3049
N 75 nm 1304' KOMK 222253Z 00000KT 1/4SM FZFG VV002 M04/M06 A3057
E 76 nm 2385' KGEG 222335Z 05004KT 3SM BR FEW003 OVC012 01/M01 A3051
SE 79 nm 1194' KALW 222327Z 00000KT M1/4SM FG VV001 01/01 A3053
S 82 nm 644' KHRI 222253Z 19003KT 7SM BKN004 02/01 A3055
E 85 nm 1956' KSFF 222253Z 00000KT 7SM OVC018 02/01 A3053
NE 89 nm 2210' KDEW 222253Z 05003KT 10SM OVC013 02/M01 A3052
S 93 nm 1496' KPDT 222253Z 30007KT 10SM CLR 07/03 A3050
E 94 nm 2566' KPUW 222253Z 09005KT 10SM CLR 04/M01 A3050
TAFs for airports near MWH, sorted by distance:
N 0 nm 1188' KMWH TAF KMWH 222339Z 2300/2324 01004KT 1/2SM FG OVC003
  FM230200 36004KT 1/4SM FG OVC003
  FM232000 00000KT 3SM BR OVC003
W 37 nm 1248' KEAT TAF KEAT 222339Z 2300/2324 VRB03KT 1/4SM FG BKN250
  FM231500 00000KT 2SM BR BKN001
  FM231700 VRB03KT 1/4SM FG BKN003
  FM231800 VRB03KT 5SM BR BKN003
  FM232000 12004KT 6SM BR BKN250
S 57 nm 410' KPSC TAF KPSC 222320Z 2300/2324 36004KT P6SM SCT010
  FM230300 VRB03KT 4SM BR SCT002
  FM230600 VRB03KT 1/2SM FZFG BKN002
  FM231900 VRB02KT 4SM BR BKN005
  FM232100 35005KT 6SM BR BKN008
SW 63 nm 1098' KYKM TAF KYKM 222320Z 2300/2324 VRB03KT P6SM FEW250
  FM230800 28003KT 4SM BR SCT006
  FM231400 29003KT 1SM BR BKN006
  FM232000 VRB03KT 6SM BR BKN025
E 71 nm 2462' KSKA TAF
  AMD KSKA 222130Z 2221/2401 06006KT 6000 BR OVC005 620055 QNH3051INS
  TEMPO 2222/2201 OVC008 620084
  BECMG 2303/2304 02005KT 0400 FZFG VV001 620013 QNH3043INS
  BECMG 2311/2312 07004KT 1200 BR BKN004 620043 QNH3030INS TX01/2221Z TNM03/2313Z
E 76 nm 2385' KGEG TAF KGEG 222339Z 2300/2324 04005KT 2SM BR SCT003 OVC010
  FM230200 03003KT 1/2SM FZFG OVC004
  FM230800 03003KT 1/4SM FZFG VV002
  FM231900 08003KT 3/4SM BR OVC003
  FM232100 VRB03KT 3SM BR OVC006
SE 79 nm 1194' KALW TAF KALW 222320Z 2300/2324 VRB04KT 3SM BR SCT002
  TEMPO 2300/2302 1/2SM FG VV001
  FM230200 VRB03KT 1/2SM FZFG VV002
  FM232100 22003KT 2SM BR BKN006
E 85 nm 1956' KSFF TAF KSFF 222339Z 2300/2324 00000KT 6SM BR OVC015
  FM230500 00000KT 3SM BR OVC008
  FM230800 00000KT 1SM BR OVC005
  FM232200 00000KT 6SM BR OVC012
S 93 nm 1496' KPDT TAF KPDT 222320Z 2300/2324 VRB05KT P6SM SCT200
  FM230600 33004KT 6SM BR FEW006 SCT200
  TEMPO 2306/2308 1SM BR BKN006
  FM230800 VRB03KT 2SM BR SCT006 SCT200
  FM231000 VRB02KT 1/2SM FZFG VV002
  FM231900 31003KT 6SM BR SCT250
E 94 nm 2566' KPUW TAF KPUW 222339Z 2300/2324 13004KT P6SM FEW250
  FM231500 13007KT 6SM BR SCT250

Shortcut to this page: http://wxbay.com.

Data may contain errors.